LVWTN SADM-SADM

Flight info

Callsign LVWTN
Flight time 0h 10m
Altitude 3000
Route TRINI
Aircraft TBM8/L-SDFGRWY/S

Departure

Time 2026-04-12 17:02
Airport Morón Airport (SADM)

Arrival

Time 2026-04-12 17:12
Airport Morón Airport (SADM)
Time Latitude Longitude Altitude Speed Heading
2026-04-12 16:56 -34.67995 -59.03482 98 ft 0 kts 108°
2026-04-12 16:59 -34.67999 -59.03472 98 ft 7 kts 124°
2026-04-12 16:59 -34.68058 -59.03452 98 ft 2 kts 175°
2026-04-12 16:59 -34.68147 -59.03423 98 ft 26 kts 160°
2026-04-12 17:00 -34.68287 -59.03346 99 ft 19 kts 157°
2026-04-12 17:00 -34.68396 -59.03288 99 ft 13 kts 154°
2026-04-12 17:00 -34.68408 -59.03283 99 ft 9 kts 159°
2026-04-12 17:00 -34.68487 -59.03246 99 ft 9 kts 184°
2026-04-12 17:01 -34.68507 -59.03271 99 ft 0 kts 265°
2026-04-12 17:01 -34.68506 -59.03312 101 ft 3 kts 291°
2026-04-12 17:01 -34.68446 -59.03349 101 ft 32 kts 341°
2026-04-12 17:01 -34.68036 -59.03509 117 ft 87 kts 326°
2026-04-12 17:02 -34.67477 -59.03995 239 ft 114 kts 303°
2026-04-12 17:02 -34.67108 -59.04828 619 ft 123 kts 261°
2026-04-12 17:02 -34.67191 -59.05950 832 ft 146 kts 280°
2026-04-12 17:02 -34.67045 -59.07247 1141 ft 164 kts 273°
2026-04-12 17:03 -34.67194 -59.08660 1502 ft 176 kts 249°
2026-04-12 17:03 -34.67695 -59.10055 1829 ft 185 kts 236°
2026-04-12 17:03 -34.68713 -59.11015 2213 ft 191 kts 201°
2026-04-12 17:03 -34.70022 -59.11370 2467 ft 197 kts 172°
2026-04-12 17:04 -34.71255 -59.10778 2762 ft 192 kts 129°
2026-04-12 17:04 -34.71713 -59.09354 3078 ft 184 kts 81°
2026-04-12 17:04 -34.71381 -59.07804 3074 ft 197 kts 63°
2026-04-12 17:04 -34.70795 -59.06292 3059 ft 203 kts 58°
2026-04-12 17:05 -34.70144 -59.04740 3058 ft 208 kts 58°
2026-04-12 17:05 -34.69473 -59.03170 3047 ft 210 kts 58°
2026-04-12 17:05 -34.68824 -59.01573 3035 ft 213 kts 64°
2026-04-12 17:05 -34.68384 -58.99850 3043 ft 214 kts 70°
2026-04-12 17:06 -34.67989 -58.98102 3049 ft 215 kts 70°
2026-04-12 17:06 -34.67595 -58.96360 3048 ft 214 kts 71°
2026-04-12 17:06 -34.67369 -58.94568 3045 ft 216 kts 82°
2026-04-12 17:06 -34.67364 -58.92769 3047 ft 216 kts 89°
2026-04-12 17:07 -34.67627 -58.90967 3061 ft 216 kts 97°
2026-04-12 17:07 -34.67918 -58.89173 3056 ft 216 kts 95°
2026-04-12 17:07 -34.68135 -58.87370 3058 ft 215 kts 92°
2026-04-12 17:07 -34.68316 -58.85563 3060 ft 216 kts 92°
2026-04-12 17:08 -34.68489 -58.83751 3063 ft 215 kts 91°
2026-04-12 17:08 -34.68667 -58.81942 3060 ft 216 kts 92°
2026-04-12 17:08 -34.68770 -58.80100 2913 ft 220 kts 79°
2026-04-12 17:08 -34.68109 -58.78491 2808 ft 216 kts 41°
2026-04-12 17:09 -34.67004 -58.77281 2624 ft 219 kts 44°
2026-04-12 17:09 -34.66009 -58.75865 2430 ft 222 kts 50°
2026-04-12 17:09 -34.65163 -58.74293 2222 ft 223 kts 59°
2026-04-12 17:09 -34.64595 -58.72548 1971 ft 220 kts 71°
2026-04-12 17:10 -34.64283 -58.70798 1937 ft 205 kts 74°
2026-04-12 17:10 -34.64020 -58.69127 1933 ft 198 kts 74°
2026-04-12 17:10 -34.63697 -58.67557 1778 ft 190 kts 68°
2026-04-12 17:10 -34.63351 -58.66041 1556 ft 182 kts 72°
2026-04-12 17:11 -34.63204 -58.64584 1536 ft 171 kts 84°
2026-04-12 17:11 -34.63242 -58.63133 1405 ft 175 kts 92°
2026-04-12 17:11 -34.63766 -58.62016 1809 ft 158 kts 126°
2026-04-12 17:11 -34.64815 -58.61865 2047 ft 156 kts 210°
2026-04-12 17:12 -34.65628 -58.62862 1289 ft 167 kts 239°
2026-04-12 17:12 -34.66280 -58.63871 391 ft 142 kts 194°
2026-04-12 17:12 -34.67137 -58.64133 109 ft 100 kts 194°
2026-04-12 17:12 -34.67660 -58.64285 92 ft 49 kts 195°
2026-04-12 17:13 -34.67898 -58.64348 91 ft 29 kts 193°
2026-04-12 17:13 -34.68052 -58.64402 89 ft 16 kts 204°
2026-04-12 17:13 -34.68156 -58.64427 88 ft 21 kts 188°
2026-04-12 17:13 -34.68213 -58.64371 87 ft 11 kts 109°
2026-04-12 17:14 -34.68230 -58.64225 92 ft 11 kts 54°
2026-04-12 17:14 -34.68103 -58.64173 89 ft 37 kts 14°
2026-04-12 17:14 -34.67926 -58.64121 88 ft 20 kts 16°
2026-04-12 17:14 -34.67691 -58.64052 90 ft 40 kts 17°
2026-04-12 17:15 -34.67488 -58.63994 90 ft 30 kts 13°
2026-04-12 17:15 -34.67246 -58.63922 88 ft 25 kts 19°
2026-04-12 17:15 -34.67208 -58.63817 89 ft 10 kts 83°
2026-04-12 17:15 -34.67160 -58.63776 88 ft 13 kts 17°
2026-04-12 17:16 -34.67136 -58.63747 88 ft 4 kts 125°
2026-04-12 17:16 -34.67144 -58.63732 88 ft 0 kts 92°